sensor_id;sensor_type;location;lat;lon;timestamp;P1;durP1;ratioP1;P2;durP2;ratioP2
16667;SDS011;8447;52.630;4.734;2023-04-01T00:01:35;8.97;;;4.80;;
16667;SDS011;8447;52.630;4.734;2023-04-01T00:04:02;12.47;;;4.77;;
16667;SDS011;8447;52.630;4.734;2023-04-01T00:06:28;10.87;;;4.33;;
16667;SDS011;8447;52.630;4.734;2023-04-01T00:08:54;8.13;;;4.10;;
16667;SDS011;8447;52.630;4.734;2023-04-01T00:11:22;11.77;;;4.43;;
16667;SDS011;8447;52.630;4.734;2023-04-01T00:13:49;12.67;;;5.03;;
16667;SDS011;8447;52.630;4.734;2023-04-01T00:16:15;7.93;;;4.50;;
16667;SDS011;8447;52.630;4.734;2023-04-01T00:18:42;8.07;;;3.83;;
16667;SDS011;8447;52.630;4.734;2023-04-01T00:21:08;7.90;;;4.47;;
16667;SDS011;8447;52.630;4.734;2023-04-01T00:23:34;9.50;;;4.07;;
16667;SDS011;8447;52.630;4.734;2023-04-01T00:26:02;13.10;;;5.27;;
16667;SDS011;8447;52.630;4.734;2023-04-01T00:28:30;12.67;;;4.90;;
16667;SDS011;8447;52.630;4.734;2023-04-01T00:30:56;11.27;;;5.03;;
16667;SDS011;8447;52.630;4.734;2023-04-01T00:33:23;11.87;;;4.40;;
16667;SDS011;8447;52.630;4.734;2023-04-01T00:35:49;10.30;;;4.63;;
16667;SDS011;8447;52.630;4.734;2023-04-01T00:38:16;9.37;;;4.67;;
16667;SDS011;8447;52.630;4.734;2023-04-01T00:40:45;12.33;;;5.07;;
16667;SDS011;8447;52.630;4.734;2023-04-01T00:43:12;8.37;;;5.30;;
16667;SDS011;8447;52.630;4.734;2023-04-01T00:45:41;9.77;;;3.97;;
16667;SDS011;8447;52.630;4.734;2023-04-01T00:48:09;8.63;;;4.30;;
16667;SDS011;8447;52.630;4.734;2023-04-01T00:50:36;10.87;;;4.10;;
16667;SDS011;8447;52.630;4.734;2023-04-01T00:53:03;8.73;;;4.30;;
16667;SDS011;8447;52.630;4.734;2023-04-01T00:55:30;6.97;;;3.43;;
16667;SDS011;8447;52.630;4.734;2023-04-01T00:57:58;9.33;;;3.67;;
16667;SDS011;8447;52.630;4.734;2023-04-01T01:00:25;5.43;;;3.47;;
16667;SDS011;8447;52.630;4.734;2023-04-01T01:02:52;8.23;;;3.13;;
16667;SDS011;8447;52.630;4.734;2023-04-01T01:05:20;6.87;;;3.43;;
16667;SDS011;8447;52.630;4.734;2023-04-01T01:07:51;8.40;;;3.97;;
16667;SDS011;8447;52.630;4.734;2023-04-01T01:10:20;7.03;;;3.20;;
16667;SDS011;8447;52.630;4.734;2023-04-01T01:12:51;5.27;;;3.87;;
16667;SDS011;8447;52.630;4.734;2023-04-01T01:15:21;6.80;;;3.90;;
16667;SDS011;8447;52.630;4.734;2023-04-01T01:17:51;7.77;;;3.90;;
16667;SDS011;8447;52.630;4.734;2023-04-01T01:20:36;6.03;;;3.60;;
16667;SDS011;8447;52.630;4.734;2023-04-01T01:23:16;4.87;;;3.57;;
16667;SDS011;8447;52.630;4.734;2023-04-01T01:25:48;3.43;;;2.77;;
16667;SDS011;8447;52.630;4.734;2023-04-01T01:28:25;2.90;;;2.60;;
16667;SDS011;8447;52.630;4.734;2023-04-01T01:30:58;4.57;;;3.30;;
16667;SDS011;8447;52.630;4.734;2023-04-01T01:33:35;3.97;;;2.50;;
16667;SDS011;8447;52.630;4.734;2023-04-01T01:36:07;3.03;;;2.73;;
16667;SDS011;8447;52.630;4.734;2023-04-01T01:38:35;3.13;;;2.70;;
16667;SDS011;8447;52.630;4.734;2023-04-01T01:41:02;3.13;;;2.20;;
16667;SDS011;8447;52.630;4.734;2023-04-01T01:43:30;2.40;;;2.20;;
16667;SDS011;8447;52.630;4.734;2023-04-01T01:45:59;3.10;;;2.70;;
16667;SDS011;8447;52.630;4.734;2023-04-01T01:48:27;2.67;;;2.40;;
16667;SDS011;8447;52.630;4.734;2023-04-01T01:50:54;3.53;;;2.87;;
16667;SDS011;8447;52.630;4.734;2023-04-01T01:53:21;2.83;;;2.63;;
16667;SDS011;8447;52.630;4.734;2023-04-01T01:55:48;3.97;;;2.80;;
16667;SDS011;8447;52.630;4.734;2023-04-01T01:58:16;3.83;;;2.67;;
16667;SDS011;8447;52.630;4.734;2023-04-01T02:00:45;2.90;;;2.60;;
16667;SDS011;8447;52.630;4.734;2023-04-01T02:03:13;3.00;;;2.67;;
16667;SDS011;8447;52.630;4.734;2023-04-01T02:05:40;3.63;;;2.93;;
16667;SDS011;8447;52.630;4.734;2023-04-01T02:08:07;4.30;;;3.30;;
16667;SDS011;8447;52.630;4.734;2023-04-01T02:10:37;3.33;;;3.03;;
16667;SDS011;8447;52.630;4.734;2023-04-01T02:13:07;3.43;;;2.87;;
16667;SDS011;8447;52.630;4.734;2023-04-01T02:15:37;5.27;;;3.83;;
16667;SDS011;8447;52.630;4.734;2023-04-01T02:18:06;3.67;;;2.97;;
16667;SDS011;8447;52.630;4.734;2023-04-01T02:20:33;4.67;;;3.70;;
16667;SDS011;8447;52.630;4.734;2023-04-01T02:23:00;4.23;;;3.53;;
16667;SDS011;8447;52.630;4.734;2023-04-01T02:25:27;4.13;;;3.67;;
16667;SDS011;8447;52.630;4.734;2023-04-01T02:27:56;6.17;;;4.33;;
16667;SDS011;8447;52.630;4.734;2023-04-01T02:30:22;5.03;;;4.00;;
16667;SDS011;8447;52.630;4.734;2023-04-01T02:32:49;4.43;;;3.83;;
16667;SDS011;8447;52.630;4.734;2023-04-01T02:35:16;4.97;;;4.47;;
16667;SDS011;8447;52.630;4.734;2023-04-01T02:37:43;8.13;;;5.00;;
16667;SDS011;8447;52.630;4.734;2023-04-01T02:40:11;4.93;;;4.30;;
16667;SDS011;8447;52.630;4.734;2023-04-01T02:42:38;6.87;;;4.30;;
16667;SDS011;8447;52.630;4.734;2023-04-01T02:45:07;7.90;;;3.90;;
16667;SDS011;8447;52.630;4.734;2023-04-01T02:47:34;4.13;;;3.73;;
16667;SDS011;8447;52.630;4.734;2023-04-01T02:50:00;4.03;;;3.40;;
16667;SDS011;8447;52.630;4.734;2023-04-01T02:52:27;7.07;;;3.87;;
16667;SDS011;8447;52.630;4.734;2023-04-01T02:54:54;3.67;;;3.27;;
16667;SDS011;8447;52.630;4.734;2023-04-01T02:57:21;3.80;;;3.17;;
16667;SDS011;8447;52.630;4.734;2023-04-01T02:59:48;5.30;;;3.60;;
16667;SDS011;8447;52.630;4.734;2023-04-01T03:02:16;4.47;;;3.73;;
16667;SDS011;8447;52.630;4.734;2023-04-01T03:04:42;4.10;;;3.00;;
16667;SDS011;8447;52.630;4.734;2023-04-01T03:07:09;4.67;;;3.30;;
16667;SDS011;8447;52.630;4.734;2023-04-01T03:09:36;4.73;;;3.53;;
16667;SDS011;8447;52.630;4.734;2023-04-01T03:12:02;3.93;;;3.30;;
16667;SDS011;8447;52.630;4.734;2023-04-01T03:14:29;3.17;;;2.87;;
16667;SDS011;8447;52.630;4.734;2023-04-01T03:16:55;3.27;;;2.90;;
16667;SDS011;8447;52.630;4.734;2023-04-01T03:19:23;6.13;;;3.20;;
16667;SDS011;8447;52.630;4.734;2023-04-01T03:21:50;2.93;;;2.60;;
16667;SDS011;8447;52.630;4.734;2023-04-01T03:24:16;3.30;;;2.67;;
16667;SDS011;8447;52.630;4.734;2023-04-01T03:26:42;3.13;;;2.47;;
16667;SDS011;8447;52.630;4.734;2023-04-01T03:29:09;3.53;;;3.23;;
16667;SDS011;8447;52.630;4.734;2023-04-01T03:31:35;3.47;;;2.53;;
16667;SDS011;8447;52.630;4.734;2023-04-01T03:34:01;4.33;;;3.67;;
16667;SDS011;8447;52.630;4.734;2023-04-01T03:36:29;4.27;;;2.47;;
16667;SDS011;8447;52.630;4.734;2023-04-01T03:38:55;3.87;;;2.73;;
16667;SDS011;8447;52.630;4.734;2023-04-01T03:41:22;4.33;;;3.43;;
16667;SDS011;8447;52.630;4.734;2023-04-01T03:43:48;3.33;;;2.97;;
16667;SDS011;8447;52.630;4.734;2023-04-01T03:46:16;3.43;;;3.13;;
16667;SDS011;8447;52.630;4.734;2023-04-01T03:48:43;3.90;;;2.73;;
16667;SDS011;8447;52.630;4.734;2023-04-01T03:51:09;4.20;;;3.23;;
16667;SDS011;8447;52.630;4.734;2023-04-01T03:53:37;6.30;;;3.50;;
16667;SDS011;8447;52.630;4.734;2023-04-01T03:56:04;3.63;;;3.17;;
16667;SDS011;8447;52.630;4.734;2023-04-01T03:58:31;5.63;;;3.77;;
16667;SDS011;8447;52.630;4.734;2023-04-01T04:00:57;5.00;;;3.50;;
16667;SDS011;8447;52.630;4.734;2023-04-01T04:03:23;3.73;;;3.37;;
16667;SDS011;8447;52.630;4.734;2023-04-01T04:05:50;6.30;;;3.37;;
16667;SDS011;8447;52.630;4.734;2023-04-01T04:08:16;6.23;;;3.70;;
16667;SDS011;8447;52.630;4.734;2023-04-01T04:10:44;5.30;;;3.13;;
16667;SDS011;8447;52.630;4.734;2023-04-01T04:13:11;5.17;;;3.10;;
16667;SDS011;8447;52.630;4.734;2023-04-01T04:15:38;5.60;;;3.07;;
16667;SDS011;8447;52.630;4.734;2023-04-01T04:18:04;3.63;;;2.63;;
16667;SDS011;8447;52.630;4.734;2023-04-01T04:20:31;6.00;;;3.77;;
16667;SDS011;8447;52.630;4.734;2023-04-01T04:22:57;4.90;;;3.10;;
16667;SDS011;8447;52.630;4.734;2023-04-01T04:25:23;4.27;;;2.83;;
16667;SDS011;8447;52.630;4.734;2023-04-01T04:27:51;3.90;;;3.10;;
16667;SDS011;8447;52.630;4.734;2023-04-01T04:30:17;5.77;;;3.50;;
16667;SDS011;8447;52.630;4.734;2023-04-01T04:32:44;5.07;;;3.23;;
16667;SDS011;8447;52.630;4.734;2023-04-01T04:35:10;5.47;;;3.83;;
16667;SDS011;8447;52.630;4.734;2023-04-01T04:37:36;5.20;;;3.07;;
16667;SDS011;8447;52.630;4.734;2023-04-01T04:40:03;4.30;;;3.03;;
16667;SDS011;8447;52.630;4.734;2023-04-01T04:42:30;6.20;;;3.37;;
16667;SDS011;8447;52.630;4.734;2023-04-01T04:44:57;6.80;;;4.10;;
16667;SDS011;8447;52.630;4.734;2023-04-01T04:47:24;7.77;;;4.10;;
16667;SDS011;8447;52.630;4.734;2023-04-01T04:49:50;7.00;;;3.50;;
16667;SDS011;8447;52.630;4.734;2023-04-01T04:52:16;5.20;;;3.83;;
16667;SDS011;8447;52.630;4.734;2023-04-01T04:54:43;7.73;;;4.17;;
16667;SDS011;8447;52.630;4.734;2023-04-01T04:57:09;6.80;;;3.90;;
16667;SDS011;8447;52.630;4.734;2023-04-01T04:59:36;5.83;;;3.30;;
16667;SDS011;8447;52.630;4.734;2023-04-01T05:02:04;9.10;;;4.30;;
16667;SDS011;8447;52.630;4.734;2023-04-01T05:04:33;8.73;;;2.13;;
16667;SDS011;8447;52.630;4.734;2023-04-01T05:07:00;5.40;;;3.77;;
16667;SDS011;8447;52.630;4.734;2023-04-01T05:09:26;8.97;;;4.30;;
16667;SDS011;8447;52.630;4.734;2023-04-01T05:11:52;7.67;;;4.37;;
16667;SDS011;8447;52.630;4.734;2023-04-01T05:14:19;5.73;;;3.83;;
16667;SDS011;8447;52.630;4.734;2023-04-01T05:16:45;5.40;;;2.60;;
16667;SDS011;8447;52.630;4.734;2023-04-01T05:19:13;10.80;;;4.77;;
16667;SDS011;8447;52.630;4.734;2023-04-01T05:21:39;9.57;;;4.00;;
16667;SDS011;8447;52.630;4.734;2023-04-01T05:24:07;10.33;;;5.23;;
16667;SDS011;8447;52.630;4.734;2023-04-01T05:26:33;13.60;;;4.93;;
16667;SDS011;8447;52.630;4.734;2023-04-01T05:29:00;9.10;;;4.80;;
16667;SDS011;8447;52.630;4.734;2023-04-01T05:31:26;8.33;;;4.50;;
16667;SDS011;8447;52.630;4.734;2023-04-01T05:33:52;8.50;;;4.53;;
16667;SDS011;8447;52.630;4.734;2023-04-01T05:36:20;9.57;;;4.87;;
16667;SDS011;8447;52.630;4.734;2023-04-01T05:38:47;9.03;;;4.83;;
16667;SDS011;8447;52.630;4.734;2023-04-01T05:41:14;10.27;;;4.30;;
16667;SDS011;8447;52.630;4.734;2023-04-01T05:43:40;9.33;;;4.67;;
16667;SDS011;8447;52.630;4.734;2023-04-01T05:46:07;7.13;;;3.97;;
16667;SDS011;8447;52.630;4.734;2023-04-01T05:48:33;12.33;;;4.80;;
16667;SDS011;8447;52.630;4.734;2023-04-01T05:51:00;9.13;;;5.17;;
16667;SDS011;8447;52.630;4.734;2023-04-01T05:53:28;11.97;;;5.43;;
16667;SDS011;8447;52.630;4.734;2023-04-01T05:55:54;9.13;;;4.23;;
16667;SDS011;8447;52.630;4.734;2023-04-01T05:58:20;9.10;;;3.40;;
16667;SDS011;8447;52.630;4.734;2023-04-01T06:00:47;12.90;;;5.47;;
16667;SDS011;8447;52.630;4.734;2023-04-01T06:03:13;9.63;;;4.70;;
16667;SDS011;8447;52.630;4.734;2023-04-01T06:05:40;17.17;;;6.60;;
16667;SDS011;8447;52.630;4.734;2023-04-01T06:08:09;15.40;;;4.97;;
16667;SDS011;8447;52.630;4.734;2023-04-01T06:10:38;11.43;;;5.73;;
16667;SDS011;8447;52.630;4.734;2023-04-01T06:13:09;15.53;;;5.97;;
16667;SDS011;8447;52.630;4.734;2023-04-01T06:15:39;10.83;;;5.40;;
16667;SDS011;8447;52.630;4.734;2023-04-01T06:18:25;14.07;;;5.30;;
16667;SDS011;8447;52.630;4.734;2023-04-01T06:20:57;10.03;;;5.23;;
16667;SDS011;8447;52.630;4.734;2023-04-01T06:23:32;14.83;;;6.87;;
16667;SDS011;8447;52.630;4.734;2023-04-01T06:26:12;12.53;;;5.50;;
16667;SDS011;8447;52.630;4.734;2023-04-01T06:28:53;10.83;;;5.47;;
16667;SDS011;8447;52.630;4.734;2023-04-01T06:31:28;11.50;;;5.27;;
16667;SDS011;8447;52.630;4.734;2023-04-01T06:34:03;13.57;;;6.40;;
16667;SDS011;8447;52.630;4.734;2023-04-01T06:39:22;9.07;;;5.27;;
16667;SDS011;8447;52.630;4.734;2023-04-01T06:44:37;11.80;;;6.20;;
16667;SDS011;8447;52.630;4.734;2023-04-01T06:47:08;14.10;;;6.27;;
16667;SDS011;8447;52.630;4.734;2023-04-01T06:49:44;13.57;;;6.50;;
16667;SDS011;8447;52.630;4.734;2023-04-01T06:52:16;12.77;;;6.27;;
16667;SDS011;8447;52.630;4.734;2023-04-01T06:54:47;11.00;;;4.27;;
16667;SDS011;8447;52.630;4.734;2023-04-01T06:57:18;16.00;;;6.60;;
16667;SDS011;8447;52.630;4.734;2023-04-01T06:59:48;12.83;;;6.13;;
16667;SDS011;8447;52.630;4.734;2023-04-01T07:02:18;14.60;;;6.33;;
16667;SDS011;8447;52.630;4.734;2023-04-01T07:04:46;13.07;;;6.43;;
16667;SDS011;8447;52.630;4.734;2023-04-01T07:07:14;13.47;;;4.33;;
16667;SDS011;8447;52.630;4.734;2023-04-01T07:09:45;14.10;;;5.57;;
16667;SDS011;8447;52.630;4.734;2023-04-01T07:12:15;11.30;;;4.90;;
16667;SDS011;8447;52.630;4.734;2023-04-01T07:14:44;13.60;;;4.13;;
16667;SDS011;8447;52.630;4.734;2023-04-01T07:17:16;11.07;;;4.30;;
16667;SDS011;8447;52.630;4.734;2023-04-01T07:19:44;7.80;;;4.43;;
16667;SDS011;8447;52.630;4.734;2023-04-01T07:22:14;8.17;;;4.83;;
16667;SDS011;8447;52.630;4.734;2023-04-01T07:24:45;9.37;;;4.43;;
16667;SDS011;8447;52.630;4.734;2023-04-01T07:27:13;8.73;;;4.23;;
16667;SDS011;8447;52.630;4.734;2023-04-01T07:29:39;11.20;;;5.43;;
16667;SDS011;8447;52.630;4.734;2023-04-01T07:32:09;8.27;;;4.10;;
16667;SDS011;8447;52.630;4.734;2023-04-01T07:34:44;9.73;;;4.83;;
16667;SDS011;8447;52.630;4.734;2023-04-01T07:37:13;8.00;;;4.30;;
16667;SDS011;8447;52.630;4.734;2023-04-01T07:39:41;11.47;;;5.17;;
16667;SDS011;8447;52.630;4.734;2023-04-01T07:42:14;12.63;;;5.23;;
16667;SDS011;8447;52.630;4.734;2023-04-01T07:44:44;7.57;;;4.50;;
16667;SDS011;8447;52.630;4.734;2023-04-01T07:47:18;10.37;;;4.77;;
16667;SDS011;8447;52.630;4.734;2023-04-01T07:49:52;7.03;;;3.40;;
16667;SDS011;8447;52.630;4.734;2023-04-01T07:52:23;6.67;;;3.10;;
16667;SDS011;8447;52.630;4.734;2023-04-01T07:54:55;4.50;;;2.70;;
16667;SDS011;8447;52.630;4.734;2023-04-01T07:57:23;4.20;;;2.83;;
16667;SDS011;8447;52.630;4.734;2023-04-01T07:59:54;3.37;;;2.53;;
16667;SDS011;8447;52.630;4.734;2023-04-01T08:02:27;3.93;;;2.80;;
16667;SDS011;8447;52.630;4.734;2023-04-01T08:04:59;5.00;;;2.70;;
16667;SDS011;8447;52.630;4.734;2023-04-01T08:07:30;6.10;;;2.43;;
16667;SDS011;8447;52.630;4.734;2023-04-01T08:09:59;2.87;;;1.83;;
16667;SDS011;8447;52.630;4.734;2023-04-01T08:12:32;3.97;;;2.03;;
16667;SDS011;8447;52.630;4.734;2023-04-01T08:15:05;4.10;;;2.50;;
16667;SDS011;8447;52.630;4.734;2023-04-01T08:17:35;3.87;;;2.43;;
16667;SDS011;8447;52.630;4.734;2023-04-01T08:20:08;4.30;;;1.87;;
16667;SDS011;8447;52.630;4.734;2023-04-01T08:22:38;4.90;;;2.83;;
16667;SDS011;8447;52.630;4.734;2023-04-01T08:25:06;5.77;;;4.07;;
16667;SDS011;8447;52.630;4.734;2023-04-01T08:27:37;5.57;;;3.47;;
16667;SDS011;8447;52.630;4.734;2023-04-01T08:30:05;3.50;;;2.90;;
16667;SDS011;8447;52.630;4.734;2023-04-01T08:32:36;3.87;;;2.17;;
16667;SDS011;8447;52.630;4.734;2023-04-01T08:35:09;4.30;;;3.17;;
16667;SDS011;8447;52.630;4.734;2023-04-01T08:37:38;7.70;;;3.00;;
16667;SDS011;8447;52.630;4.734;2023-04-01T08:40:18;4.80;;;2.43;;
16667;SDS011;8447;52.630;4.734;2023-04-01T08:42:52;4.17;;;2.40;;
16667;SDS011;8447;52.630;4.734;2023-04-01T08:45:38;5.00;;;2.60;;
16667;SDS011;8447;52.630;4.734;2023-04-01T08:48:14;3.60;;;2.77;;
16667;SDS011;8447;52.630;4.734;2023-04-01T08:50:51;5.07;;;3.27;;
16667;SDS011;8447;52.630;4.734;2023-04-01T08:53:24;4.87;;;3.50;;
16667;SDS011;8447;52.630;4.734;2023-04-01T08:56:00;9.67;;;3.57;;
16667;SDS011;8447;52.630;4.734;2023-04-01T08:58:37;5.83;;;3.40;;
16667;SDS011;8447;52.630;4.734;2023-04-01T09:01:14;5.90;;;3.93;;
16667;SDS011;8447;52.630;4.734;2023-04-01T09:03:50;4.67;;;2.90;;
16667;SDS011;8447;52.630;4.734;2023-04-01T09:06:31;3.47;;;2.50;;
16667;SDS011;8447;52.630;4.734;2023-04-01T09:09:11;3.83;;;2.90;;
16667;SDS011;8447;52.630;4.734;2023-04-01T09:11:50;1.50;;;1.40;;
16667;SDS011;8447;52.630;4.734;2023-04-01T09:17:08;4.27;;;2.77;;
16667;SDS011;8447;52.630;4.734;2023-04-01T09:19:42;3.80;;;2.77;;
16667;SDS011;8447;52.630;4.734;2023-04-01T09:22:15;3.03;;;2.03;;
16667;SDS011;8447;52.630;4.734;2023-04-01T09:25:01;3.37;;;2.50;;
16667;SDS011;8447;52.630;4.734;2023-04-01T09:27:28;6.23;;;3.17;;
16667;SDS011;8447;52.630;4.734;2023-04-01T09:32:48;5.40;;;2.93;;
16667;SDS011;8447;52.630;4.734;2023-04-01T09:35:20;5.60;;;3.93;;
16667;SDS011;8447;52.630;4.734;2023-04-01T09:37:53;4.23;;;2.97;;
16667;SDS011;8447;52.630;4.734;2023-04-01T09:40:21;4.67;;;3.20;;
16667;SDS011;8447;52.630;4.734;2023-04-01T09:43:04;5.70;;;4.27;;
16667;SDS011;8447;52.630;4.734;2023-04-01T09:45:35;4.10;;;3.00;;
16667;SDS011;8447;52.630;4.734;2023-04-01T09:48:06;7.00;;;4.17;;
16667;SDS011;8447;52.630;4.734;2023-04-01T09:50:35;7.17;;;4.73;;
16667;SDS011;8447;52.630;4.734;2023-04-01T09:56:00;6.33;;;3.93;;
16667;SDS011;8447;52.630;4.734;2023-04-01T09:58:32;4.87;;;3.90;;
16667;SDS011;8447;52.630;4.734;2023-04-01T10:06:57;9.03;;;5.20;;
16667;SDS011;8447;52.630;4.734;2023-04-01T10:12:16;7.93;;;4.97;;
16667;SDS011;8447;52.630;4.734;2023-04-01T10:14:56;9.93;;;4.60;;
16667;SDS011;8447;52.630;4.734;2023-04-01T10:17:31;9.07;;;4.53;;
16667;SDS011;8447;52.630;4.734;2023-04-01T10:22:50;8.03;;;4.10;;
16667;SDS011;8447;52.630;4.734;2023-04-01T10:25:27;8.07;;;3.87;;
16667;SDS011;8447;52.630;4.734;2023-04-01T10:28:00;5.67;;;3.50;;
16667;SDS011;8447;52.630;4.734;2023-04-01T10:33:38;4.67;;;3.60;;
16667;SDS011;8447;52.630;4.734;2023-04-01T10:44:26;4.80;;;2.80;;
16667;SDS011;8447;52.630;4.734;2023-04-01T10:47:04;4.97;;;2.93;;
16667;SDS011;8447;52.630;4.734;2023-04-01T10:49:47;4.70;;;2.50;;
16667;SDS011;8447;52.630;4.734;2023-04-01T10:55:03;6.80;;;2.83;;
16667;SDS011;8447;52.630;4.734;2023-04-01T10:57:41;3.93;;;2.87;;
16667;SDS011;8447;52.630;4.734;2023-04-01T11:00:19;4.80;;;3.60;;
16667;SDS011;8447;52.630;4.734;2023-04-01T11:02:56;7.93;;;3.90;;
16667;SDS011;8447;52.630;4.734;2023-04-01T11:11:03;6.50;;;3.70;;
16667;SDS011;8447;52.630;4.734;2023-04-01T11:16:30;7.57;;;4.50;;
16667;SDS011;8447;52.630;4.734;2023-04-01T11:24:58;6.70;;;3.03;;
16667;SDS011;8447;52.630;4.734;2023-04-01T11:27:34;8.80;;;2.93;;
16667;SDS011;8447;52.630;4.734;2023-04-01T11:30:10;7.00;;;2.30;;
16667;SDS011;8447;52.630;4.734;2023-04-01T11:32:46;5.70;;;2.03;;
16667;SDS011;8447;52.630;4.734;2023-04-01T11:35:32;4.83;;;1.90;;
16667;SDS011;8447;52.630;4.734;2023-04-01T11:38:04;5.10;;;2.43;;
16667;SDS011;8447;52.630;4.734;2023-04-01T11:40:34;5.80;;;2.07;;
16667;SDS011;8447;52.630;4.734;2023-04-01T11:43:03;5.67;;;2.40;;
16667;SDS011;8447;52.630;4.734;2023-04-01T11:45:35;4.60;;;2.00;;
16667;SDS011;8447;52.630;4.734;2023-04-01T11:50:49;8.67;;;2.50;;
16667;SDS011;8447;52.630;4.734;2023-04-01T11:53:23;3.73;;;1.67;;
16667;SDS011;8447;52.630;4.734;2023-04-01T11:55:55;5.97;;;2.13;;
16667;SDS011;8447;52.630;4.734;2023-04-01T12:06:43;3.10;;;2.00;;
16667;SDS011;8447;52.630;4.734;2023-04-01T12:09:15;5.07;;;1.93;;
16667;SDS011;8447;52.630;4.734;2023-04-01T12:11:48;5.37;;;2.47;;
16667;SDS011;8447;52.630;4.734;2023-04-01T12:14:16;7.13;;;2.57;;
16667;SDS011;8447;52.630;4.734;2023-04-01T12:16:51;2.30;;;1.37;;
16667;SDS011;8447;52.630;4.734;2023-04-01T12:19:23;4.33;;;2.23;;
16667;SDS011;8447;52.630;4.734;2023-04-01T12:21:56;5.20;;;2.20;;
16667;SDS011;8447;52.630;4.734;2023-04-01T12:24:37;4.93;;;1.93;;
16667;SDS011;8447;52.630;4.734;2023-04-01T12:27:11;6.93;;;2.00;;
16667;SDS011;8447;52.630;4.734;2023-04-01T12:29:49;6.23;;;2.07;;
16667;SDS011;8447;52.630;4.734;2023-04-01T12:32:23;5.60;;;1.57;;
16667;SDS011;8447;52.630;4.734;2023-04-01T12:35:02;8.70;;;2.37;;
16667;SDS011;8447;52.630;4.734;2023-04-01T12:37:35;5.17;;;2.10;;
16667;SDS011;8447;52.630;4.734;2023-04-01T12:40:06;5.20;;;1.57;;
16667;SDS011;8447;52.630;4.734;2023-04-01T12:42:44;5.03;;;2.30;;
16667;SDS011;8447;52.630;4.734;2023-04-01T12:50:47;3.83;;;2.10;;
16667;SDS011;8447;52.630;4.734;2023-04-01T12:53:27;2.87;;;2.23;;
16667;SDS011;8447;52.630;4.734;2023-04-01T12:56:00;5.73;;;2.47;;
16667;SDS011;8447;52.630;4.734;2023-04-01T13:01:17;2.57;;;2.00;;
16667;SDS011;8447;52.630;4.734;2023-04-01T13:06:31;3.97;;;2.13;;
16667;SDS011;8447;52.630;4.734;2023-04-01T13:09:08;3.67;;;2.50;;
16667;SDS011;8447;52.630;4.734;2023-04-01T13:11:44;6.37;;;2.40;;
16667;SDS011;8447;52.630;4.734;2023-04-01T13:14:26;3.23;;;2.30;;
16667;SDS011;8447;52.630;4.734;2023-04-01T13:16:57;4.13;;;2.50;;
16667;SDS011;8447;52.630;4.734;2023-04-01T13:19:28;4.30;;;2.50;;
16667;SDS011;8447;52.630;4.734;2023-04-01T13:21:58;2.17;;;1.80;;
16667;SDS011;8447;52.630;4.734;2023-04-01T13:24:35;3.37;;;2.10;;
16667;SDS011;8447;52.630;4.734;2023-04-01T13:27:05;2.33;;;1.73;;
16667;SDS011;8447;52.630;4.734;2023-04-01T13:29:32;2.33;;;1.90;;
16667;SDS011;8447;52.630;4.734;2023-04-01T13:32:12;2.20;;;1.87;;
16667;SDS011;8447;52.630;4.734;2023-04-01T13:34:40;2.50;;;1.83;;
16667;SDS011;8447;52.630;4.734;2023-04-01T13:37:15;3.93;;;1.93;;
16667;SDS011;8447;52.630;4.734;2023-04-01T13:39:50;2.67;;;1.90;;
16667;SDS011;8447;52.630;4.734;2023-04-01T13:42:23;3.33;;;1.67;;
16667;SDS011;8447;52.630;4.734;2023-04-01T13:44:51;4.43;;;2.23;;
16667;SDS011;8447;52.630;4.734;2023-04-01T13:50:16;2.40;;;2.20;;
16667;SDS011;8447;52.630;4.734;2023-04-01T13:55:36;4.50;;;1.90;;
16667;SDS011;8447;52.630;4.734;2023-04-01T13:58:16;3.00;;;1.70;;
16667;SDS011;8447;52.630;4.734;2023-04-01T14:00:53;2.50;;;1.67;;
16667;SDS011;8447;52.630;4.734;2023-04-01T14:03:28;6.40;;;1.93;;
16667;SDS011;8447;52.630;4.734;2023-04-01T14:05:59;2.80;;;1.60;;
16667;SDS011;8447;52.630;4.734;2023-04-01T14:08:29;3.93;;;2.20;;
16667;SDS011;8447;52.630;4.734;2023-04-01T14:11:05;4.30;;;2.33;;
16667;SDS011;8447;52.630;4.734;2023-04-01T14:13:34;3.73;;;1.60;;
16667;SDS011;8447;52.630;4.734;2023-04-01T14:16:21;5.93;;;1.90;;
16667;SDS011;8447;52.630;4.734;2023-04-01T14:18:54;2.57;;;1.30;;
16667;SDS011;8447;52.630;4.734;2023-04-01T14:21:27;3.67;;;1.50;;
16667;SDS011;8447;52.630;4.734;2023-04-01T14:24:04;2.90;;;1.30;;
16667;SDS011;8447;52.630;4.734;2023-04-01T14:29:18;4.03;;;1.70;;
16667;SDS011;8447;52.630;4.734;2023-04-01T14:31:53;2.63;;;1.90;;
16667;SDS011;8447;52.630;4.734;2023-04-01T14:34:24;2.50;;;1.63;;
16667;SDS011;8447;52.630;4.734;2023-04-01T14:37:00;4.30;;;1.33;;
16667;SDS011;8447;52.630;4.734;2023-04-01T14:39:38;1.80;;;1.57;;
16667;SDS011;8447;52.630;4.734;2023-04-01T14:42:15;3.10;;;2.10;;
16667;SDS011;8447;52.630;4.734;2023-04-01T14:44:55;3.53;;;1.67;;
16667;SDS011;8447;52.630;4.734;2023-04-01T14:50:09;5.20;;;1.00;;
16667;SDS011;8447;52.630;4.734;2023-04-01T14:52:38;2.03;;;1.77;;
16667;SDS011;8447;52.630;4.734;2023-04-01T14:55:15;2.10;;;1.23;;
16667;SDS011;8447;52.630;4.734;2023-04-01T14:57:43;2.10;;;1.30;;
16667;SDS011;8447;52.630;4.734;2023-04-01T15:00:25;4.70;;;1.27;;
16667;SDS011;8447;52.630;4.734;2023-04-01T15:02:53;2.20;;;1.67;;
16667;SDS011;8447;52.630;4.734;2023-04-01T15:05:27;3.10;;;1.20;;
16667;SDS011;8447;52.630;4.734;2023-04-01T15:08:03;3.07;;;1.93;;
16667;SDS011;8447;52.630;4.734;2023-04-01T15:13:13;2.67;;;1.27;;
16667;SDS011;8447;52.630;4.734;2023-04-01T15:15:46;4.33;;;1.17;;
16667;SDS011;8447;52.630;4.734;2023-04-01T15:18:16;1.40;;;0.97;;
16667;SDS011;8447;52.630;4.734;2023-04-01T15:20:48;1.80;;;1.20;;
16667;SDS011;8447;52.630;4.734;2023-04-01T15:23:24;2.23;;;1.47;;
16667;SDS011;8447;52.630;4.734;2023-04-01T15:26:02;1.40;;;1.30;;
16667;SDS011;8447;52.630;4.734;2023-04-01T15:28:33;3.77;;;1.47;;
16667;SDS011;8447;52.630;4.734;2023-04-01T15:31:04;5.70;;;1.23;;
16667;SDS011;8447;52.630;4.734;2023-04-01T15:33:38;3.00;;;1.50;;
16667;SDS011;8447;52.630;4.734;2023-04-01T15:36:12;1.10;;;0.90;;
16667;SDS011;8447;52.630;4.734;2023-04-01T15:38:42;1.23;;;1.13;;
16667;SDS011;8447;52.630;4.734;2023-04-01T15:41:14;2.40;;;1.17;;
16667;SDS011;8447;52.630;4.734;2023-04-01T15:43:42;4.30;;;1.40;;
16667;SDS011;8447;52.630;4.734;2023-04-01T15:46:14;1.20;;;1.10;;
16667;SDS011;8447;52.630;4.734;2023-04-01T15:48:49;2.23;;;1.33;;
16667;SDS011;8447;52.630;4.734;2023-04-01T15:51:20;3.27;;;1.03;;
16667;SDS011;8447;52.630;4.734;2023-04-01T15:53:54;2.47;;;1.50;;
16667;SDS011;8447;52.630;4.734;2023-04-01T15:56:26;2.50;;;1.30;;
16667;SDS011;8447;52.630;4.734;2023-04-01T15:58:55;1.90;;;1.40;;
16667;SDS011;8447;52.630;4.734;2023-04-01T16:01:29;2.87;;;1.30;;
16667;SDS011;8447;52.630;4.734;2023-04-01T16:03:57;1.30;;;0.90;;
16667;SDS011;8447;52.630;4.734;2023-04-01T16:06:47;1.30;;;1.03;;
16667;SDS011;8447;52.630;4.734;2023-04-01T16:09:22;2.20;;;1.13;;
16667;SDS011;8447;52.630;4.734;2023-04-01T16:11:52;2.20;;;1.20;;
16667;SDS011;8447;52.630;4.734;2023-04-01T16:14:25;2.10;;;1.07;;
16667;SDS011;8447;52.630;4.734;2023-04-01T16:16:57;2.23;;;1.00;;
16667;SDS011;8447;52.630;4.734;2023-04-01T16:19:30;2.40;;;1.20;;
16667;SDS011;8447;52.630;4.734;2023-04-01T16:21:59;1.67;;;1.10;;
16667;SDS011;8447;52.630;4.734;2023-04-01T16:24:30;1.57;;;1.40;;
16667;SDS011;8447;52.630;4.734;2023-04-01T16:27:00;1.33;;;1.10;;
16667;SDS011;8447;52.630;4.734;2023-04-01T16:29:30;3.50;;;1.20;;
16667;SDS011;8447;52.630;4.734;2023-04-01T16:32:14;1.23;;;0.90;;
16667;SDS011;8447;52.630;4.734;2023-04-01T16:34:43;2.17;;;1.20;;
16667;SDS011;8447;52.630;4.734;2023-04-01T16:37:11;2.00;;;1.57;;
16667;SDS011;8447;52.630;4.734;2023-04-01T16:39:43;1.00;;;0.90;;
16667;SDS011;8447;52.630;4.734;2023-04-01T16:42:17;2.73;;;0.93;;
16667;SDS011;8447;52.630;4.734;2023-04-01T16:44:48;5.30;;;1.40;;
16667;SDS011;8447;52.630;4.734;2023-04-01T16:47:18;2.03;;;0.90;;
16667;SDS011;8447;52.630;4.734;2023-04-01T16:49:47;2.53;;;1.07;;
16667;SDS011;8447;52.630;4.734;2023-04-01T16:52:34;2.57;;;1.10;;